PWSweather.com
Personal Weather Stations
Station Observations
KMACAMBR
Central Square, Cambridge, MA 02139

Central SquareCambridge, MA 02139

Lat: 42.36379, Lon: -71.107902

Elevation: 6

Station Type: Davis Vantage Pro2

https://weather-cambridge.keneli.org

Latest ConditionsUpdated 9:35:00 PM EST Saturday, Dec 15, 2018
Currently Today's Max Today's Min Today's Average
Temperature 43.3°F6.3°C 53.8°F12.1°C 43.3°F6.3°C 48.9°F9.4°C
Dew Point 33.5°F0.8°C 47.0°F8.3°C 33.5°F0.8°C 42.6°F5.9°C
Winds 5.0 mph NNE8.0 kmh NNE 8.0 mph -12.9 kmh - - 3.0 mph 4.8 kmh
Wind Gusts 9.0 mph14.5 kmh 17.0 mph27.4 kmh - -
Humidity 68% 91% 60% 79%
Pressure 30.21 in1023.0 mb 30.22 in1023.4 mb 30.10 in1019.3 mb -
Hour Temp Dew Point Humidity Winds Wind Gusts Pressure Precip Precip Rate Daily Precip Total
09:35 PM 43.3°F6.3°C 33.5°F0.8°C 68% 5.0 mph NNE8.0 kmh NNE 9.0 mph14.5 kmh 30.21 in1023.0 mb 0.00 in0.0 mm 0.00 in0.0 mm 0.00 in0.0 mm
09:30 PM 43.4°F6.3°C 33.6°F0.9°C 68% 5.0 mph NNE8.0 kmh NNE 11.0 mph17.7 kmh 30.21 in1023.0 mb 0.00 in0.0 mm 0.00 in0.0 mm 0.00 in0.0 mm
09:25 PM 43.5°F6.4°C 33.7°F0.9°C 68% 3.0 mph NNE4.8 kmh NNE 8.0 mph12.9 kmh 30.21 in1023.0 mb 0.00 in0.0 mm 0.00 in0.0 mm 0.00 in0.0 mm
09:20 PM 43.6°F6.4°C 33.7°F0.9°C 68% 4.0 mph NE6.4 kmh NE 8.0 mph12.9 kmh 30.20 in1022.7 mb 0.00 in0.0 mm 0.00 in0.0 mm 0.00 in0.0 mm
09:15 PM 43.8°F6.6°C 33.9°F1.1°C 68% 2.0 mph NNE3.2 kmh NNE 7.0 mph11.3 kmh 30.21 in1023.0 mb 0.00 in0.0 mm 0.00 in0.0 mm 0.00 in0.0 mm
09:10 PM 43.8°F6.6°C 33.9°F1.1°C 68% 4.0 mph NNE6.4 kmh NNE 7.0 mph11.3 kmh 30.20 in1022.7 mb 0.00 in0.0 mm 0.00 in0.0 mm 0.00 in0.0 mm
09:05 PM 44.0°F6.7°C 34.1°F1.2°C 68% 3.0 mph NNE4.8 kmh NNE 5.0 mph8.0 kmh 30.20 in1022.7 mb 0.00 in0.0 mm 0.00 in0.0 mm 0.00 in0.0 mm
09:00 PM 44.0°F6.7°C 34.1°F1.2°C 68% 2.0 mph NNE3.2 kmh NNE 4.0 mph6.4 kmh 30.21 in1023.0 mb 0.00 in0.0 mm 0.00 in0.0 mm 0.00 in0.0 mm
08:55 PM 44.1°F6.7°C 34.2°F1.2°C 68% 2.0 mph NNE3.2 kmh NNE 4.0 mph6.4 kmh 30.22 in1023.4 mb 0.00 in0.0 mm 0.00 in0.0 mm 0.00 in0.0 mm
08:50 PM 44.2°F6.8°C 34.3°F1.3°C 68% 2.0 mph NE3.2 kmh NE 4.0 mph6.4 kmh 30.22 in1023.4 mb 0.00 in0.0 mm 0.00 in0.0 mm 0.00 in0.0 mm
08:45 PM 44.2°F6.8°C 33.9°F1.1°C 67% 2.0 mph NE3.2 kmh NE 3.0 mph4.8 kmh 30.21 in1023.0 mb 0.00 in0.0 mm 0.00 in0.0 mm 0.00 in0.0 mm
08:40 PM 44.3°F6.8°C 34.0°F1.1°C 67% 2.0 mph NE3.2 kmh NE 5.0 mph8.0 kmh 30.22 in1023.4 mb 0.00 in0.0 mm 0.00 in0.0 mm 0.00 in0.0 mm
08:35 PM 44.3°F6.8°C 34.0°F1.1°C 67% 3.0 mph NNE4.8 kmh NNE 5.0 mph8.0 kmh 30.21 in1023.0 mb 0.00 in0.0 mm 0.00 in0.0 mm 0.00 in0.0 mm
08:30 PM 44.3°F6.8°C 34.0°F1.1°C 67% 4.0 mph NNE6.4 kmh NNE 9.0 mph14.5 kmh 30.22 in1023.4 mb 0.00 in0.0 mm 0.00 in0.0 mm 0.00 in0.0 mm
08:25 PM 44.3°F6.8°C 34.0°F1.1°C 67% 4.0 mph NNE6.4 kmh NNE 8.0 mph12.9 kmh 30.21 in1023.0 mb 0.00 in0.0 mm 0.00 in0.0 mm 0.00 in0.0 mm
08:20 PM 44.4°F6.9°C 34.1°F1.2°C 67% 3.0 mph NE4.8 kmh NE 5.0 mph8.0 kmh 30.21 in1023.0 mb 0.00 in0.0 mm 0.00 in0.0 mm 0.00 in0.0 mm
08:15 PM 44.4°F6.9°C 34.1°F1.2°C 67% 4.0 mph NNE6.4 kmh NNE 7.0 mph11.3 kmh 30.21 in1023.0 mb 0.00 in0.0 mm 0.00 in0.0 mm 0.00 in0.0 mm
08:10 PM 44.4°F6.9°C 34.1°F1.2°C 67% 4.0 mph NE6.4 kmh NE 9.0 mph14.5 kmh 30.21 in1023.0 mb 0.00 in0.0 mm 0.00 in0.0 mm 0.00 in0.0 mm
08:05 PM 44.4°F6.9°C 34.5°F1.4°C 68% 5.0 mph NNE8.0 kmh NNE 10.0 mph16.1 kmh 30.21 in1023.0 mb 0.00 in0.0 mm 0.00 in0.0 mm 0.00 in0.0 mm
08:00 PM 44.4°F6.9°C 34.5°F1.4°C 68% 6.0 mph NE9.7 kmh NE 10.0 mph16.1 kmh 30.20 in1022.7 mb 0.00 in0.0 mm 0.00 in0.0 mm 0.00 in0.0 mm
07:55 PM 44.5°F6.9°C 35.0°F1.7°C 69% 5.0 mph NNE8.0 kmh NNE 11.0 mph17.7 kmh 30.20 in1022.7 mb 0.00 in0.0 mm 0.00 in0.0 mm 0.00 in0.0 mm
07:50 PM 44.6°F7.0°C 35.1°F1.7°C 69% 4.0 mph NE6.4 kmh NE 11.0 mph17.7 kmh 30.20 in1022.7 mb 0.00 in0.0 mm 0.00 in0.0 mm 0.00 in0.0 mm
07:45 PM 44.6°F7.0°C 35.4°F1.9°C 70% 4.0 mph ENE6.4 kmh ENE 9.0 mph14.5 kmh 30.20 in1022.7 mb 0.00 in0.0 mm 0.00 in0.0 mm 0.00 in0.0 mm
07:40 PM 44.7°F7.1°C 35.5°F1.9°C 70% 3.0 mph E4.8 kmh E 5.0 mph8.0 kmh 30.21 in1023.0 mb 0.00 in0.0 mm 0.00 in0.0 mm 0.00 in0.0 mm
07:35 PM 44.7°F7.1°C 35.9°F2.2°C 71% 4.0 mph NE6.4 kmh NE 8.0 mph12.9 kmh 30.19 in1022.4 mb 0.00 in0.0 mm 0.00 in0.0 mm 0.00 in0.0 mm
07:30 PM 44.8°F7.1°C 36.0°F2.2°C 71% 5.0 mph NE8.0 kmh NE 9.0 mph14.5 kmh 30.19 in1022.4 mb 0.00 in0.0 mm 0.00 in0.0 mm 0.00 in0.0 mm
07:25 PM 44.9°F7.2°C 36.1°F2.3°C 71% 5.0 mph NE8.0 kmh NE 10.0 mph16.1 kmh 30.18 in1022.0 mb 0.00 in0.0 mm 0.00 in0.0 mm 0.00 in0.0 mm
07:20 PM 45.0°F7.2°C 36.2°F2.3°C 71% 6.0 mph ENE9.7 kmh ENE 10.0 mph16.1 kmh 30.17 in1021.7 mb 0.00 in0.0 mm 0.00 in0.0 mm 0.00 in0.0 mm
07:15 PM 45.1°F7.3°C 36.3°F2.4°C 71% 6.0 mph NE9.7 kmh NE 10.0 mph16.1 kmh 30.17 in1021.7 mb 0.00 in0.0 mm 0.00 in0.0 mm 0.00 in0.0 mm
07:10 PM 45.2°F7.3°C 36.4°F2.4°C 71% 5.0 mph NE8.0 kmh NE 10.0 mph16.1 kmh 30.17 in1021.7 mb 0.00 in0.0 mm 0.00 in0.0 mm 0.00 in0.0 mm
07:05 PM 45.2°F7.3°C 36.4°F2.4°C 71% 3.0 mph NE4.8 kmh NE 10.0 mph16.1 kmh 30.17 in1021.7 mb 0.00 in0.0 mm 0.00 in0.0 mm 0.00 in0.0 mm
07:00 PM 45.4°F7.4°C 36.6°F2.6°C 71% 6.0 mph NE9.7 kmh NE 13.0 mph20.9 kmh 30.15 in1021.0 mb 0.00 in0.0 mm 0.00 in0.0 mm 0.00 in0.0 mm
06:55 PM 45.5°F7.5°C 36.7°F2.6°C 71% 5.0 mph NE8.0 kmh NE 11.0 mph17.7 kmh 30.16 in1021.3 mb 0.00 in0.0 mm 0.00 in0.0 mm 0.00 in0.0 mm
06:50 PM 45.7°F7.6°C 36.5°F2.5°C 70% 5.0 mph NE8.0 kmh NE 12.0 mph19.3 kmh 30.15 in1021.0 mb 0.00 in0.0 mm 0.00 in0.0 mm 0.00 in0.0 mm
06:45 PM 45.8°F7.7°C 36.2°F2.3°C 69% 6.0 mph NE9.7 kmh NE 13.0 mph20.9 kmh 30.15 in1021.0 mb 0.00 in0.0 mm 0.00 in0.0 mm 0.00 in0.0 mm
06:40 PM 46.1°F7.8°C 36.5°F2.5°C 69% 7.0 mph NE11.3 kmh NE 14.0 mph22.5 kmh 30.14 in1020.7 mb 0.00 in0.0 mm 0.00 in0.0 mm 0.00 in0.0 mm
06:35 PM 46.3°F7.9°C 36.3°F2.4°C 68% 5.0 mph NE8.0 kmh NE 12.0 mph19.3 kmh 30.14 in1020.7 mb 0.00 in0.0 mm 0.00 in0.0 mm 0.00 in0.0 mm
06:30 PM 46.6°F8.1°C 36.2°F2.3°C 67% 5.0 mph NE8.0 kmh NE 11.0 mph17.7 kmh 30.15 in1021.0 mb 0.00 in0.0 mm 0.00 in0.0 mm 0.00 in0.0 mm
06:25 PM 46.8°F8.2°C 36.0°F2.2°C 66% 5.0 mph ENE8.0 kmh ENE 10.0 mph16.1 kmh 30.14 in1020.7 mb 0.00 in0.0 mm 0.00 in0.0 mm 0.00 in0.0 mm
06:20 PM 47.1°F8.4°C 35.9°F2.2°C 65% 6.0 mph NE9.7 kmh NE 14.0 mph22.5 kmh 30.15 in1021.0 mb 0.00 in0.0 mm 0.00 in0.0 mm 0.00 in0.0 mm
06:15 PM 47.3°F8.5°C 35.7°F2.1°C 64% 5.0 mph NE8.0 kmh NE 14.0 mph22.5 kmh 30.15 in1021.0 mb 0.00 in0.0 mm 0.00 in0.0 mm 0.00 in0.0 mm
06:10 PM 47.6°F8.7°C 35.6°F2.0°C 63% 8.0 mph NE12.9 kmh NE 15.0 mph24.1 kmh 30.15 in1021.0 mb 0.00 in0.0 mm 0.00 in0.0 mm 0.00 in0.0 mm
06:05 PM 48.1°F8.9°C 35.7°F2.1°C 62% 8.0 mph ENE12.9 kmh ENE 14.0 mph22.5 kmh 30.15 in1021.0 mb 0.00 in0.0 mm 0.00 in0.0 mm 0.00 in0.0 mm
06:00 PM 48.5°F9.2°C 36.1°F2.3°C 62% 6.0 mph NE9.7 kmh NE 12.0 mph19.3 kmh 30.16 in1021.3 mb 0.00 in0.0 mm 0.00 in0.0 mm 0.00 in0.0 mm
05:55 PM 48.8°F9.3°C 36.8°F2.7°C 63% 7.0 mph NNE11.3 kmh NNE 12.0 mph19.3 kmh 30.16 in1021.3 mb 0.00 in0.0 mm 0.00 in0.0 mm 0.00 in0.0 mm
05:50 PM 49.0°F9.4°C 37.4°F3.0°C 64% 6.0 mph NNE9.7 kmh NNE 13.0 mph20.9 kmh 30.15 in1021.0 mb 0.00 in0.0 mm 0.00 in0.0 mm 0.00 in0.0 mm
05:45 PM 49.1°F9.5°C 37.5°F3.1°C 64% 6.0 mph NE9.7 kmh NE 12.0 mph19.3 kmh 30.16 in1021.3 mb 0.00 in0.0 mm 0.00 in0.0 mm 0.00 in0.0 mm
05:40 PM 49.3°F9.6°C 37.6°F3.1°C 64% 5.0 mph NNE8.0 kmh NNE 9.0 mph14.5 kmh 30.16 in1021.3 mb 0.00 in0.0 mm 0.00 in0.0 mm 0.00 in0.0 mm
05:35 PM 49.5°F9.7°C 37.8°F3.2°C 64% 6.0 mph NNE9.7 kmh NNE 14.0 mph22.5 kmh 30.16 in1021.3 mb 0.00 in0.0 mm 0.00 in0.0 mm 0.00 in0.0 mm
05:30 PM 49.7°F9.8°C 37.6°F3.1°C 63% 7.0 mph NNE11.3 kmh NNE 17.0 mph27.4 kmh 30.15 in1021.0 mb 0.00 in0.0 mm 0.00 in0.0 mm 0.00 in0.0 mm
05:25 PM 50.0°F10.0°C 37.9°F3.3°C 63% 6.0 mph NNE9.7 kmh NNE 11.0 mph17.7 kmh 30.15 in1021.0 mb 0.00 in0.0 mm 0.00 in0.0 mm 0.00 in0.0 mm
05:20 PM 50.2°F10.1°C 38.1°F3.4°C 63% 5.0 mph NNE8.0 kmh NNE 14.0 mph22.5 kmh 30.15 in1021.0 mb 0.00 in0.0 mm 0.00 in0.0 mm 0.00 in0.0 mm
05:15 PM 50.4°F10.2°C 38.3°F3.5°C 63% 6.0 mph NNE9.7 kmh NNE 14.0 mph22.5 kmh 30.15 in1021.0 mb 0.00 in0.0 mm 0.00 in0.0 mm 0.00 in0.0 mm
05:10 PM 50.6°F10.3°C 38.5°F3.6°C 63% 4.0 mph NNE6.4 kmh NNE 8.0 mph12.9 kmh 30.14 in1020.7 mb 0.00 in0.0 mm 0.00 in0.0 mm 0.00 in0.0 mm
05:05 PM 50.7°F10.4°C 38.2°F3.4°C 62% 4.0 mph NE6.4 kmh NE 11.0 mph17.7 kmh 30.14 in1020.7 mb 0.00 in0.0 mm 0.00 in0.0 mm 0.00 in0.0 mm
05:00 PM 50.8°F10.4°C 38.3°F3.5°C 62% 4.0 mph NNE6.4 kmh NNE 10.0 mph16.1 kmh 30.14 in1020.7 mb 0.00 in0.0 mm 0.00 in0.0 mm 0.00 in0.0 mm
04:55 PM 51.0°F10.6°C 38.4°F3.6°C 62% 4.0 mph NNE6.4 kmh NNE 10.0 mph16.1 kmh 30.14 in1020.7 mb 0.00 in0.0 mm 0.00 in0.0 mm 0.00 in0.0 mm
04:50 PM 51.0°F10.6°C 38.4°F3.6°C 62% 5.0 mph NNE8.0 kmh NNE 10.0 mph16.1 kmh 30.14 in1020.7 mb 0.00 in0.0 mm 0.00 in0.0 mm 0.00 in0.0 mm
04:45 PM 51.2°F10.7°C 38.6°F3.7°C 62% 3.0 mph NNE4.8 kmh NNE 6.0 mph9.7 kmh 30.14 in1020.7 mb 0.00 in0.0 mm 0.00 in0.0 mm 0.00 in0.0 mm
04:40 PM 51.3°F10.7°C 38.7°F3.7°C 62% 3.0 mph NNE4.8 kmh NNE 6.0 mph9.7 kmh 30.14 in1020.7 mb 0.00 in0.0 mm 0.00 in0.0 mm 0.00 in0.0 mm
04:35 PM 51.4°F10.8°C 38.4°F3.6°C 61% 3.0 mph NNE4.8 kmh NNE 7.0 mph11.3 kmh 30.13 in1020.3 mb 0.00 in0.0 mm 0.00 in0.0 mm 0.00 in0.0 mm
04:30 PM 51.5°F10.8°C 38.5°F3.6°C 61% 2.0 mph NNE3.2 kmh NNE 5.0 mph8.0 kmh 30.13 in1020.3 mb 0.00 in0.0 mm 0.00 in0.0 mm 0.00 in0.0 mm
04:25 PM 51.7°F10.9°C 38.7°F3.7°C 61% 4.0 mph 6.4 kmh 7.0 mph11.3 kmh 30.13 in1020.3 mb 0.00 in0.0 mm 0.00 in0.0 mm 0.00 in0.0 mm
04:20 PM 51.8°F11.0°C 38.8°F3.8°C 61% 5.0 mph NNE8.0 kmh NNE 10.0 mph16.1 kmh 30.13 in1020.3 mb 0.00 in0.0 mm 0.00 in0.0 mm 0.00 in0.0 mm
04:15 PM 51.9°F11.1°C 38.9°F3.8°C 61% 5.0 mph 8.0 kmh 9.0 mph14.5 kmh 30.13 in1020.3 mb 0.00 in0.0 mm 0.00 in0.0 mm 0.00 in0.0 mm
04:10 PM 52.1°F11.2°C 38.6°F3.7°C 60% 4.0 mph NNE6.4 kmh NNE 9.0 mph14.5 kmh 30.13 in1020.3 mb 0.00 in0.0 mm 0.00 in0.0 mm 0.00 in0.0 mm
04:05 PM 52.2°F11.2°C 38.7°F3.7°C 60% 4.0 mph NNE6.4 kmh NNE 10.0 mph16.1 kmh 30.12 in1020.0 mb 0.00 in0.0 mm 0.00 in0.0 mm 0.00 in0.0 mm
04:00 PM 52.4°F11.3°C 38.9°F3.8°C 60% 4.0 mph 6.4 kmh 9.0 mph14.5 kmh 30.12 in1020.0 mb 0.00 in0.0 mm 0.00 in0.0 mm 0.00 in0.0 mm
03:55 PM 52.5°F11.4°C 39.4°F4.1°C 61% 3.0 mph 4.8 kmh 7.0 mph11.3 kmh 30.12 in1020.0 mb 0.00 in0.0 mm 0.00 in0.0 mm 0.00 in0.0 mm
03:50 PM 52.7°F11.5°C 39.6°F4.2°C 61% 3.0 mph NNE4.8 kmh NNE 7.0 mph11.3 kmh 30.12 in1020.0 mb 0.00 in0.0 mm 0.00 in0.0 mm 0.00 in0.0 mm
03:45 PM 52.8°F11.6°C 39.3°F4.1°C 60% 5.0 mph NNE8.0 kmh NNE 9.0 mph14.5 kmh 30.12 in1020.0 mb 0.00 in0.0 mm 0.00 in0.0 mm 0.00 in0.0 mm
03:40 PM 53.0°F11.7°C 39.9°F4.4°C 61% 4.0 mph NNE6.4 kmh NNE 7.0 mph11.3 kmh 30.12 in1020.0 mb 0.00 in0.0 mm 0.00 in0.0 mm 0.00 in0.0 mm
03:35 PM 53.1°F11.7°C 39.6°F4.2°C 60% 4.0 mph NNE6.4 kmh NNE 9.0 mph14.5 kmh 30.12 in1020.0 mb 0.00 in0.0 mm 0.00 in0.0 mm 0.00 in0.0 mm
03:30 PM 53.2°F11.8°C 40.1°F4.5°C 61% 4.0 mph NNE6.4 kmh NNE 9.0 mph14.5 kmh 30.12 in1020.0 mb 0.00 in0.0 mm 0.00 in0.0 mm 0.00 in0.0 mm
03:25 PM 53.3°F11.8°C 40.6°F4.8°C 62% 4.0 mph NNE6.4 kmh NNE 8.0 mph12.9 kmh 30.12 in1020.0 mb 0.00 in0.0 mm 0.00 in0.0 mm 0.00 in0.0 mm
03:20 PM 53.4°F11.9°C 40.7°F4.8°C 62% 3.0 mph 4.8 kmh 8.0 mph12.9 kmh 30.12 in1020.0 mb 0.00 in0.0 mm 0.00 in0.0 mm 0.00 in0.0 mm
03:15 PM 53.5°F11.9°C 40.8°F4.9°C 62% 3.0 mph NNW4.8 kmh NNW 6.0 mph9.7 kmh 30.11 in1019.6 mb 0.00 in0.0 mm 0.00 in0.0 mm 0.00 in0.0 mm
03:10 PM 53.5°F11.9°C 40.8°F4.9°C 62% 4.0 mph NNW6.4 kmh NNW 10.0 mph16.1 kmh 30.11 in1019.6 mb 0.00 in0.0 mm 0.00 in0.0 mm 0.00 in0.0 mm
03:05 PM 53.6°F12.0°C 40.9°F4.9°C 62% 4.0 mph 6.4 kmh 8.0 mph12.9 kmh 30.11 in1019.6 mb 0.00 in0.0 mm 0.00 in0.0 mm 0.00 in0.0 mm
03:00 PM 53.6°F12.0°C 40.9°F4.9°C 62% 4.0 mph NW6.4 kmh NW 9.0 mph14.5 kmh 30.11 in1019.6 mb 0.00 in0.0 mm 0.00 in0.0 mm 0.00 in0.0 mm
02:55 PM 53.6°F12.0°C 40.9°F4.9°C 62% 4.0 mph NNW6.4 kmh NNW 8.0 mph12.9 kmh 30.11 in1019.6 mb 0.00 in0.0 mm 0.00 in0.0 mm 0.00 in0.0 mm
02:50 PM 53.7°F12.1°C 41.0°F5.0°C 62% 3.0 mph NNW4.8 kmh NNW 9.0 mph14.5 kmh 30.11 in1019.6 mb 0.00 in0.0 mm 0.00 in0.0 mm 0.00 in0.0 mm
02:45 PM 53.7°F12.1°C 41.0°F5.0°C 62% 3.0 mph 4.8 kmh 6.0 mph9.7 kmh 30.11 in1019.6 mb 0.00 in0.0 mm 0.00 in0.0 mm 0.00 in0.0 mm
02:40 PM 53.7°F12.1°C 41.0°F5.0°C 62% 3.0 mph NW4.8 kmh NW 7.0 mph11.3 kmh 30.11 in1019.6 mb 0.00 in0.0 mm 0.00 in0.0 mm 0.00 in0.0 mm
02:35 PM 53.7°F12.1°C 40.6°F4.8°C 61% 3.0 mph NNW4.8 kmh NNW 6.0 mph9.7 kmh 30.11 in1019.6 mb 0.00 in0.0 mm 0.00 in0.0 mm 0.00 in0.0 mm
02:30 PM 53.8°F12.1°C 40.7°F4.8°C 61% 3.0 mph NNW4.8 kmh NNW 9.0 mph14.5 kmh 30.11 in1019.6 mb 0.00 in0.0 mm 0.00 in0.0 mm 0.00 in0.0 mm
02:25 PM 53.8°F12.1°C 40.7°F4.8°C 61% 2.0 mph NNW3.2 kmh NNW 4.0 mph6.4 kmh 30.10 in1019.3 mb 0.00 in0.0 mm 0.00 in0.0 mm 0.00 in0.0 mm
02:20 PM 53.7°F12.1°C 40.6°F4.8°C 61% 2.0 mph NW3.2 kmh NW 6.0 mph9.7 kmh 30.10 in1019.3 mb 0.00 in0.0 mm 0.00 in0.0 mm 0.00 in0.0 mm
02:15 PM 53.6°F12.0°C 41.3°F5.2°C 63% 2.0 mph NW3.2 kmh NW 6.0 mph9.7 kmh 30.10 in1019.3 mb 0.00 in0.0 mm 0.00 in0.0 mm 0.00 in0.0 mm
02:10 PM 53.5°F11.9°C 42.0°F5.6°C 65% 4.0 mph NNW6.4 kmh NNW 10.0 mph16.1 kmh 30.10 in1019.3 mb 0.00 in0.0 mm 0.00 in0.0 mm 0.00 in0.0 mm
02:05 PM 53.4°F11.9°C 45.0°F7.2°C 73% 2.0 mph WNW3.2 kmh WNW 8.0 mph12.9 kmh 30.10 in1019.3 mb 0.00 in0.0 mm 0.00 in0.0 mm 0.00 in0.0 mm
02:00 PM 53.3°F11.8°C 44.9°F7.2°C 73% 1.0 mph WNW1.6 kmh WNW 3.0 mph4.8 kmh 30.10 in1019.3 mb 0.00 in0.0 mm 0.00 in0.0 mm 0.00 in0.0 mm
01:55 PM 53.3°F11.8°C 44.9°F7.2°C 73% Calm Calm 2.0 mph3.2 kmh 30.10 in1019.3 mb 0.00 in0.0 mm 0.00 in0.0 mm 0.00 in0.0 mm
01:50 PM 53.2°F11.8°C 44.8°F7.1°C 73% 1.0 mph WNW1.6 kmh WNW 2.0 mph3.2 kmh 30.10 in1019.3 mb 0.00 in0.0 mm 0.00 in0.0 mm 0.00 in0.0 mm
01:45 PM 53.2°F11.8°C 44.8°F7.1°C 73% 1.0 mph WNW1.6 kmh WNW 2.0 mph3.2 kmh 30.10 in1019.3 mb 0.00 in0.0 mm 0.00 in0.0 mm 0.00 in0.0 mm
01:40 PM 53.3°F11.8°C 44.9°F7.2°C 73% Calm Calm 2.0 mph3.2 kmh 30.10 in1019.3 mb 0.00 in0.0 mm 0.00 in0.0 mm 0.00 in0.0 mm
01:35 PM 53.2°F11.8°C 44.8°F7.1°C 73% 1.0 mph WNW1.6 kmh WNW 2.0 mph3.2 kmh 30.10 in1019.3 mb 0.00 in0.0 mm 0.00 in0.0 mm 0.00 in0.0 mm
01:30 PM 53.1°F11.7°C 45.0°F7.2°C 74% 1.0 mph WNW1.6 kmh WNW 2.0 mph3.2 kmh 30.10 in1019.3 mb 0.00 in0.0 mm 0.00 in0.0 mm 0.00 in0.0 mm
01:25 PM 53.2°F11.8°C 45.1°F7.3°C 74% 1.0 mph WNW1.6 kmh WNW 3.0 mph4.8 kmh 30.10 in1019.3 mb 0.00 in0.0 mm 0.00 in0.0 mm 0.00 in0.0 mm
01:20 PM 53.2°F11.8°C 45.1°F7.3°C 74% 1.0 mph WNW1.6 kmh WNW 3.0 mph4.8 kmh 30.10 in1019.3 mb 0.00 in0.0 mm 0.00 in0.0 mm 0.00 in0.0 mm
01:15 PM 52.9°F11.6°C 45.2°F7.3°C 75% 1.0 mph WNW1.6 kmh WNW 3.0 mph4.8 kmh 30.10 in1019.3 mb 0.00 in0.0 mm 0.00 in0.0 mm 0.00 in0.0 mm
01:10 PM 53.0°F11.7°C 45.3°F7.4°C 75% 2.0 mph WNW3.2 kmh WNW 4.0 mph6.4 kmh 30.10 in1019.3 mb 0.00 in0.0 mm 0.00 in0.0 mm 0.00 in0.0 mm
01:05 PM 53.1°F11.7°C 45.4°F7.4°C 75% 1.0 mph WNW1.6 kmh WNW 2.0 mph3.2 kmh 30.10 in1019.3 mb 0.00 in0.0 mm 0.00 in0.0 mm 0.00 in0.0 mm
01:00 PM 53.0°F11.7°C 45.6°F7.6°C 76% 1.0 mph WNW1.6 kmh WNW 3.0 mph4.8 kmh 30.10 in1019.3 mb 0.00 in0.0 mm 0.00 in0.0 mm 0.00 in0.0 mm
12:55 PM 52.8°F11.6°C 45.4°F7.4°C 76% 2.0 mph WNW3.2 kmh WNW 4.0 mph6.4 kmh 30.10 in1019.3 mb 0.00 in0.0 mm 0.00 in0.0 mm 0.00 in0.0 mm
12:50 PM 52.9°F11.6°C 45.5°F7.5°C 76% 1.0 mph WNW1.6 kmh WNW 4.0 mph6.4 kmh 30.10 in1019.3 mb 0.00 in0.0 mm 0.00 in0.0 mm 0.00 in0.0 mm
12:45 PM 52.8°F11.6°C 45.8°F7.7°C 77% 1.0 mph WNW1.6 kmh WNW 5.0 mph8.0 kmh 30.10 in1019.3 mb 0.00 in0.0 mm 0.00 in0.0 mm 0.00 in0.0 mm
12:40 PM 52.4°F11.3°C 45.7°F7.6°C 78% 2.0 mph WNW3.2 kmh WNW 5.0 mph8.0 kmh 30.10 in1019.3 mb 0.00 in0.0 mm 0.00 in0.0 mm 0.00 in0.0 mm
12:35 PM 52.3°F11.3°C 46.0°F7.8°C 79% 1.0 mph WNW1.6 kmh WNW 3.0 mph4.8 kmh 30.10 in1019.3 mb 0.00 in0.0 mm 0.00 in0.0 mm 0.00 in0.0 mm
12:30 PM 52.2°F11.2°C 45.9°F7.7°C 79% 1.0 mph WNW1.6 kmh WNW 2.0 mph3.2 kmh 30.10 in1019.3 mb 0.00 in0.0 mm 0.00 in0.0 mm 0.00 in0.0 mm
12:25 PM 52.2°F11.2°C 45.9°F7.7°C 79% 1.0 mph WNW1.6 kmh WNW 3.0 mph4.8 kmh 30.10 in1019.3 mb 0.00 in0.0 mm 0.00 in0.0 mm 0.00 in0.0 mm
12:20 PM 52.3°F11.3°C 46.3°F7.9°C 80% 1.0 mph WNW1.6 kmh WNW 3.0 mph4.8 kmh 30.10 in1019.3 mb 0.00 in0.0 mm 0.00 in0.0 mm 0.00 in0.0 mm
12:15 PM 51.9°F11.1°C 46.3°F7.9°C 81% 1.0 mph WNW1.6 kmh WNW 3.0 mph4.8 kmh 30.10 in1019.3 mb 0.00 in0.0 mm 0.00 in0.0 mm 0.00 in0.0 mm
12:10 PM 51.8°F11.0°C 46.2°F7.9°C 81% 1.0 mph WNW1.6 kmh WNW 3.0 mph4.8 kmh 30.10 in1019.3 mb 0.00 in0.0 mm 0.00 in0.0 mm 0.00 in0.0 mm
12:05 PM 51.7°F10.9°C 46.1°F7.8°C 81% 1.0 mph WNW1.6 kmh WNW 3.0 mph4.8 kmh 30.10 in1019.3 mb 0.00 in0.0 mm 0.00 in0.0 mm 0.00 in0.0 mm
12:00 PM 51.8°F11.0°C 46.2°F7.9°C 81% 1.0 mph WNW1.6 kmh WNW 4.0 mph6.4 kmh 30.10 in1019.3 mb 0.00 in0.0 mm 0.00 in0.0 mm 0.00 in0.0 mm
11:55 AM 51.9°F11.1°C 46.6°F8.1°C 82% 1.0 mph W1.6 kmh W 2.0 mph3.2 kmh 30.11 in1019.6 mb 0.00 in0.0 mm 0.00 in0.0 mm 0.00 in0.0 mm
11:50 AM 51.7°F10.9°C 46.4°F8.0°C 82% 1.0 mph W1.6 kmh W 3.0 mph4.8 kmh 30.11 in1019.6 mb 0.00 in0.0 mm 0.00 in0.0 mm 0.00 in0.0 mm
11:45 AM 51.6°F10.9°C 46.3°F7.9°C 82% 1.0 mph WNW1.6 kmh WNW 4.0 mph6.4 kmh 30.11 in1019.6 mb 0.00 in0.0 mm 0.00 in0.0 mm 0.00 in0.0 mm
11:40 AM 51.6°F10.9°C 46.3°F7.9°C 82% 2.0 mph WNW3.2 kmh WNW 5.0 mph8.0 kmh 30.11 in1019.6 mb 0.00 in0.0 mm 0.00 in0.0 mm 0.00 in0.0 mm
11:35 AM 51.7°F10.9°C 46.4°F8.0°C 82% 3.0 mph WNW4.8 kmh WNW 8.0 mph12.9 kmh 30.11 in1019.6 mb 0.00 in0.0 mm 0.00 in0.0 mm 0.00 in0.0 mm
11:30 AM 51.8°F11.0°C 46.5°F8.1°C 82% 3.0 mph NW4.8 kmh NW 7.0 mph11.3 kmh 30.11 in1019.6 mb 0.00 in0.0 mm 0.00 in0.0 mm 0.00 in0.0 mm
11:25 AM 52.1°F11.2°C 46.8°F8.2°C 82% 2.0 mph W3.2 kmh W 4.0 mph6.4 kmh 30.11 in1019.6 mb 0.00 in0.0 mm 0.00 in0.0 mm 0.00 in0.0 mm
11:20 AM 52.0°F11.1°C 47.0°F8.3°C 83% 3.0 mph WSW4.8 kmh WSW 8.0 mph12.9 kmh 30.12 in1020.0 mb 0.00 in0.0 mm 0.00 in0.0 mm 0.00 in0.0 mm
11:15 AM 51.7°F10.9°C 47.0°F8.3°C 84% 2.0 mph WSW3.2 kmh WSW 7.0 mph11.3 kmh 30.12 in1020.0 mb 0.00 in0.0 mm 0.00 in0.0 mm 0.00 in0.0 mm
11:10 AM 51.2°F10.7°C 46.8°F8.2°C 85% 3.0 mph WSW4.8 kmh WSW 5.0 mph8.0 kmh 30.12 in1020.0 mb 0.00 in0.0 mm 0.00 in0.0 mm 0.00 in0.0 mm
11:05 AM 50.8°F10.4°C 46.8°F8.2°C 86% 3.0 mph SW4.8 kmh SW 5.0 mph8.0 kmh 30.13 in1020.3 mb 0.00 in0.0 mm 0.00 in0.0 mm 0.00 in0.0 mm
11:00 AM 50.6°F10.3°C 46.6°F8.1°C 86% 3.0 mph WSW4.8 kmh WSW 7.0 mph11.3 kmh 30.13 in1020.3 mb 0.00 in0.0 mm 0.00 in0.0 mm 0.00 in0.0 mm
10:55 AM 50.7°F10.4°C 46.7°F8.2°C 86% 3.0 mph WSW4.8 kmh WSW 8.0 mph12.9 kmh 30.14 in1020.7 mb 0.00 in0.0 mm 0.00 in0.0 mm 0.00 in0.0 mm
10:50 AM 50.6°F10.3°C 46.6°F8.1°C 86% 4.0 mph WSW6.4 kmh WSW 9.0 mph14.5 kmh 30.14 in1020.7 mb 0.00 in0.0 mm 0.00 in0.0 mm 0.00 in0.0 mm
10:45 AM 50.8°F10.4°C 46.8°F8.2°C 86% 3.0 mph WSW4.8 kmh WSW 7.0 mph11.3 kmh 30.15 in1021.0 mb 0.00 in0.0 mm 0.00 in0.0 mm 0.00 in0.0 mm
10:40 AM 50.7°F10.4°C 46.7°F8.2°C 86% 4.0 mph WSW6.4 kmh WSW 8.0 mph12.9 kmh 30.15 in1021.0 mb 0.00 in0.0 mm 0.00 in0.0 mm 0.00 in0.0 mm
10:35 AM 50.6°F10.3°C 46.9°F8.3°C 87% 3.0 mph WSW4.8 kmh WSW 7.0 mph11.3 kmh 30.15 in1021.0 mb 0.00 in0.0 mm 0.00 in0.0 mm 0.00 in0.0 mm
10:30 AM 50.4°F10.2°C 47.0°F8.3°C 88% 3.0 mph WSW4.8 kmh WSW 7.0 mph11.3 kmh 30.15 in1021.0 mb 0.00 in0.0 mm 0.00 in0.0 mm 0.00 in0.0 mm
10:25 AM 50.2°F10.1°C 46.8°F8.2°C 88% 2.0 mph WSW3.2 kmh WSW 5.0 mph8.0 kmh 30.15 in1021.0 mb 0.00 in0.0 mm 0.00 in0.0 mm 0.00 in0.0 mm
10:20 AM 50.1°F10.1°C 47.0°F8.3°C 89% 3.0 mph SW4.8 kmh SW 5.0 mph8.0 kmh 30.16 in1021.3 mb 0.00 in0.0 mm 0.00 in0.0 mm 0.00 in0.0 mm
10:15 AM 50.0°F10.0°C 46.9°F8.3°C 89% 3.0 mph SW4.8 kmh SW 7.0 mph11.3 kmh 30.15 in1021.0 mb 0.00 in0.0 mm 0.00 in0.0 mm 0.00 in0.0 mm
10:10 AM 50.0°F10.0°C 46.9°F8.3°C 89% 3.0 mph WSW4.8 kmh WSW 6.0 mph9.7 kmh 30.16 in1021.3 mb 0.00 in0.0 mm 0.00 in0.0 mm 0.00 in0.0 mm
10:05 AM 49.9°F9.9°C 46.8°F8.2°C 89% 2.0 mph WSW3.2 kmh WSW 5.0 mph8.0 kmh 30.16 in1021.3 mb 0.00 in0.0 mm 0.00 in0.0 mm 0.00 in0.0 mm
10:00 AM 49.8°F9.9°C 46.7°F8.2°C 89% 2.0 mph SW3.2 kmh SW 7.0 mph11.3 kmh 30.16 in1021.3 mb 0.00 in0.0 mm 0.00 in0.0 mm 0.00 in0.0 mm
09:55 AM 49.7°F9.8°C 46.9°F8.3°C 90% 2.0 mph SW3.2 kmh SW 4.0 mph6.4 kmh 30.16 in1021.3 mb 0.00 in0.0 mm 0.00 in0.0 mm 0.00 in0.0 mm
09:50 AM 49.6°F9.8°C 46.8°F8.2°C 90% 2.0 mph WSW3.2 kmh WSW 4.0 mph6.4 kmh 30.16 in1021.3 mb 0.00 in0.0 mm 0.00 in0.0 mm 0.00 in0.0 mm
09:45 AM 49.4°F9.7°C 46.6°F8.1°C 90% 2.0 mph SW3.2 kmh SW 4.0 mph6.4 kmh 30.16 in1021.3 mb 0.00 in0.0 mm 0.00 in0.0 mm 0.00 in0.0 mm
09:40 AM 49.3°F9.6°C 46.8°F8.2°C 91% 2.0 mph SW3.2 kmh SW 6.0 mph9.7 kmh 30.17 in1021.7 mb 0.00 in0.0 mm 0.00 in0.0 mm 0.00 in0.0 mm
09:35 AM 49.1°F9.5°C 46.6°F8.1°C 91% 1.0 mph SW1.6 kmh SW 4.0 mph6.4 kmh 30.17 in1021.7 mb 0.00 in0.0 mm 0.00 in0.0 mm 0.00 in0.0 mm
09:30 AM 49.1°F9.5°C 46.6°F8.1°C 91% 1.0 mph SW1.6 kmh SW 4.0 mph6.4 kmh 30.17 in1021.7 mb 0.00 in0.0 mm 0.00 in0.0 mm 0.00 in0.0 mm
09:25 AM 49.0°F9.4°C 46.2°F7.9°C 90% 2.0 mph SW3.2 kmh SW 4.0 mph6.4 kmh 30.17 in1021.7 mb 0.00 in0.0 mm 0.00 in0.0 mm 0.00 in0.0 mm
09:20 AM 49.0°F9.4°C 46.5°F8.1°C 91% 2.0 mph WSW3.2 kmh WSW 4.0 mph6.4 kmh 30.17 in1021.7 mb 0.00 in0.0 mm 0.00 in0.0 mm 0.00 in0.0 mm
09:15 AM 48.9°F9.4°C 46.4°F8.0°C 91% 1.0 mph WSW1.6 kmh WSW 5.0 mph8.0 kmh 30.16 in1021.3 mb 0.00 in0.0 mm 0.00 in0.0 mm 0.00 in0.0 mm
09:10 AM 48.8°F9.3°C 46.3°F7.9°C 91% 1.0 mph WSW1.6 kmh WSW 4.0 mph6.4 kmh 30.16 in1021.3 mb 0.00 in0.0 mm 0.00 in0.0 mm 0.00 in0.0 mm
09:05 AM 48.8°F9.3°C 46.3°F7.9°C 91% Calm Calm 3.0 mph4.8 kmh 30.16 in1021.3 mb 0.00 in0.0 mm 0.00 in0.0 mm 0.00 in0.0 mm
09:00 AM 48.8°F9.3°C 46.3°F7.9°C 91% 2.0 mph SW3.2 kmh SW 4.0 mph6.4 kmh 30.16 in1021.3 mb 0.00 in0.0 mm 0.00 in0.0 mm 0.00 in0.0 mm
08:55 AM 48.7°F9.3°C 46.2°F7.9°C 91% 2.0 mph SW3.2 kmh SW 5.0 mph8.0 kmh 30.16 in1021.3 mb 0.00 in0.0 mm 0.00 in0.0 mm 0.00 in0.0 mm
08:50 AM 48.6°F9.2°C 46.1°F7.8°C 91% 2.0 mph WSW3.2 kmh WSW 5.0 mph8.0 kmh 30.16 in1021.3 mb 0.00 in0.0 mm 0.00 in0.0 mm 0.00 in0.0 mm
08:45 AM 48.6°F9.2°C 46.1°F7.8°C 91% 1.0 mph WSW1.6 kmh WSW 5.0 mph8.0 kmh 30.16 in1021.3 mb 0.00 in0.0 mm 0.00 in0.0 mm 0.00 in0.0 mm
08:40 AM 48.6°F9.2°C 46.1°F7.8°C 91% 2.0 mph WSW3.2 kmh WSW 4.0 mph6.4 kmh 30.16 in1021.3 mb 0.00 in0.0 mm 0.00 in0.0 mm 0.00 in0.0 mm
08:35 AM 48.5°F9.2°C 46.0°F7.8°C 91% 2.0 mph SW3.2 kmh SW 6.0 mph9.7 kmh 30.15 in1021.0 mb 0.00 in0.0 mm 0.00 in0.0 mm 0.00 in0.0 mm
08:30 AM 48.5°F9.2°C 46.0°F7.8°C 91% 2.0 mph WSW3.2 kmh WSW 8.0 mph12.9 kmh 30.15 in1021.0 mb 0.00 in0.0 mm 0.00 in0.0 mm 0.00 in0.0 mm
08:25 AM 48.5°F9.2°C 46.0°F7.8°C 91% 3.0 mph SSW4.8 kmh SSW 8.0 mph12.9 kmh 30.15 in1021.0 mb 0.00 in0.0 mm 0.00 in0.0 mm 0.00 in0.0 mm
08:20 AM 48.4°F9.1°C 45.9°F7.7°C 91% 4.0 mph SW6.4 kmh SW 10.0 mph16.1 kmh 30.15 in1021.0 mb 0.00 in0.0 mm 0.00 in0.0 mm 0.00 in0.0 mm
08:15 AM 48.4°F9.1°C 45.9°F7.7°C 91% 3.0 mph WSW4.8 kmh WSW 7.0 mph11.3 kmh 30.15 in1021.0 mb 0.00 in0.0 mm 0.00 in0.0 mm 0.00 in0.0 mm
08:10 AM 48.4°F9.1°C 45.9°F7.7°C 91% 3.0 mph SSW4.8 kmh SSW 8.0 mph12.9 kmh 30.16 in1021.3 mb 0.00 in0.0 mm 0.00 in0.0 mm 0.00 in0.0 mm
08:05 AM 48.3°F9.1°C 45.8°F7.7°C 91% 2.0 mph SW3.2 kmh SW 6.0 mph9.7 kmh 30.15 in1021.0 mb 0.00 in0.0 mm 0.00 in0.0 mm 0.00 in0.0 mm
08:00 AM 48.3°F9.1°C 45.5°F7.5°C 90% 2.0 mph SW3.2 kmh SW 7.0 mph11.3 kmh 30.15 in1021.0 mb 0.00 in0.0 mm 0.00 in0.0 mm 0.00 in0.0 mm
07:55 AM 48.3°F9.1°C 45.5°F7.5°C 90% 2.0 mph S3.2 kmh S 5.0 mph8.0 kmh 30.14 in1020.7 mb 0.00 in0.0 mm 0.00 in0.0 mm 0.00 in0.0 mm
07:50 AM 48.3°F9.1°C 45.5°F7.5°C 90% 3.0 mph SW4.8 kmh SW 10.0 mph16.1 kmh 30.15 in1021.0 mb 0.00 in0.0 mm 0.00 in0.0 mm 0.00 in0.0 mm
07:45 AM 48.3°F9.1°C 45.5°F7.5°C 90% 2.0 mph SW3.2 kmh SW 8.0 mph12.9 kmh 30.15 in1021.0 mb 0.00 in0.0 mm 0.00 in0.0 mm 0.00 in0.0 mm
07:40 AM 48.3°F9.1°C 45.5°F7.5°C 90% 3.0 mph SW4.8 kmh SW 5.0 mph8.0 kmh 30.14 in1020.7 mb 0.00 in0.0 mm 0.00 in0.0 mm 0.00 in0.0 mm
07:35 AM 48.3°F9.1°C 45.5°F7.5°C 90% 3.0 mph WSW4.8 kmh WSW 8.0 mph12.9 kmh 30.14 in1020.7 mb 0.00 in0.0 mm 0.00 in0.0 mm 0.00 in0.0 mm
07:30 AM 48.3°F9.1°C 45.5°F7.5°C 90% 3.0 mph SW4.8 kmh SW 9.0 mph14.5 kmh 30.15 in1021.0 mb 0.00 in0.0 mm 0.00 in0.0 mm 0.00 in0.0 mm
07:25 AM 48.3°F9.1°C 45.5°F7.5°C 90% 3.0 mph WSW4.8 kmh WSW 7.0 mph11.3 kmh 30.14 in1020.7 mb 0.00 in0.0 mm 0.00 in0.0 mm 0.00 in0.0 mm
07:20 AM 48.3°F9.1°C 45.5°F7.5°C 90% 4.0 mph SW6.4 kmh SW 7.0 mph11.3 kmh 30.14 in1020.7 mb 0.00 in0.0 mm 0.00 in0.0 mm 0.00 in0.0 mm
07:15 AM 48.3°F9.1°C 45.5°F7.5°C 90% 2.0 mph SW3.2 kmh SW 5.0 mph8.0 kmh 30.14 in1020.7 mb 0.00 in0.0 mm 0.00 in0.0 mm 0.00 in0.0 mm
07:10 AM 48.3°F9.1°C 45.5°F7.5°C 90% 3.0 mph SW4.8 kmh SW 8.0 mph12.9 kmh 30.14 in1020.7 mb 0.00 in0.0 mm 0.00 in0.0 mm 0.00 in0.0 mm
07:05 AM 48.3°F9.1°C 45.5°F7.5°C 90% 3.0 mph SW4.8 kmh SW 8.0 mph12.9 kmh 30.14 in1020.7 mb 0.00 in0.0 mm 0.00 in0.0 mm 0.00 in0.0 mm
07:00 AM 48.3°F9.1°C 45.2°F7.3°C 89% 3.0 mph SW4.8 kmh SW 8.0 mph12.9 kmh 30.14 in1020.7 mb 0.00 in0.0 mm 0.00 in0.0 mm 0.00 in0.0 mm
06:55 AM 48.3°F9.1°C 45.2°F7.3°C 89% 3.0 mph SW4.8 kmh SW 8.0 mph12.9 kmh 30.14 in1020.7 mb 0.00 in0.0 mm 0.00 in0.0 mm 0.00 in0.0 mm
06:50 AM 48.3°F9.1°C 45.2°F7.3°C 89% 3.0 mph SW4.8 kmh SW 9.0 mph14.5 kmh 30.14 in1020.7 mb 0.00 in0.0 mm 0.00 in0.0 mm 0.00 in0.0 mm
06:45 AM 48.3°F9.1°C 45.2°F7.3°C 89% 2.0 mph SW3.2 kmh SW 5.0 mph8.0 kmh 30.14 in1020.7 mb 0.00 in0.0 mm 0.00 in0.0 mm 0.00 in0.0 mm
06:40 AM 48.3°F9.1°C 45.2°F7.3°C 89% 4.0 mph WSW6.4 kmh WSW 8.0 mph12.9 kmh 30.13 in1020.3 mb 0.00 in0.0 mm 0.00 in0.0 mm 0.00 in0.0 mm
06:35 AM 48.3°F9.1°C 45.2°F7.3°C 89% 3.0 mph SW4.8 kmh SW 8.0 mph12.9 kmh 30.13 in1020.3 mb 0.00 in0.0 mm 0.00 in0.0 mm 0.00 in0.0 mm
06:30 AM 48.3°F9.1°C 45.2°F7.3°C 89% 2.0 mph S3.2 kmh S 5.0 mph8.0 kmh 30.13 in1020.3 mb 0.00 in0.0 mm 0.00 in0.0 mm 0.00 in0.0 mm
06:25 AM 48.4°F9.1°C 45.3°F7.4°C 89% 3.0 mph WSW4.8 kmh WSW 5.0 mph8.0 kmh 30.13 in1020.3 mb 0.00 in0.0 mm 0.00 in0.0 mm 0.00 in0.0 mm
06:20 AM 48.4°F9.1°C 45.3°F7.4°C 89% 2.0 mph WSW3.2 kmh WSW 7.0 mph11.3 kmh 30.13 in1020.3 mb 0.00 in0.0 mm 0.00 in0.0 mm 0.00 in0.0 mm
06:15 AM 48.4°F9.1°C 45.3°F7.4°C 89% 3.0 mph SSW4.8 kmh SSW 7.0 mph11.3 kmh 30.12 in1020.0 mb 0.00 in0.0 mm 0.00 in0.0 mm 0.00 in0.0 mm
06:10 AM 48.5°F9.2°C 45.4°F7.4°C 89% 3.0 mph SW4.8 kmh SW 6.0 mph9.7 kmh 30.13 in1020.3 mb 0.00 in0.0 mm 0.00 in0.0 mm 0.00 in0.0 mm
06:05 AM 48.5°F9.2°C 45.1°F7.3°C 88% 3.0 mph SW4.8 kmh SW 8.0 mph12.9 kmh 30.13 in1020.3 mb 0.00 in0.0 mm 0.00 in0.0 mm 0.00 in0.0 mm
06:00 AM 48.5°F9.2°C 45.1°F7.3°C 88% 4.0 mph WSW6.4 kmh WSW 11.0 mph17.7 kmh 30.12 in1020.0 mb 0.00 in0.0 mm 0.00 in0.0 mm 0.00 in0.0 mm
05:55 AM 48.5°F9.2°C 45.1°F7.3°C 88% 3.0 mph SW4.8 kmh SW 9.0 mph14.5 kmh 30.12 in1020.0 mb 0.00 in0.0 mm 0.00 in0.0 mm 0.00 in0.0 mm
05:50 AM 48.5°F9.2°C 45.1°F7.3°C 88% 3.0 mph SW4.8 kmh SW 5.0 mph8.0 kmh 30.12 in1020.0 mb 0.00 in0.0 mm 0.00 in0.0 mm 0.00 in0.0 mm
05:45 AM 48.5°F9.2°C 45.1°F7.3°C 88% 4.0 mph SW6.4 kmh SW 7.0 mph11.3 kmh 30.12 in1020.0 mb 0.00 in0.0 mm 0.00 in0.0 mm 0.00 in0.0 mm
05:40 AM 48.4°F9.1°C 45.0°F7.2°C 88% 3.0 mph SSW4.8 kmh SSW 6.0 mph9.7 kmh 30.11 in1019.6 mb 0.00 in0.0 mm 0.00 in0.0 mm 0.00 in0.0 mm
05:35 AM 48.4°F9.1°C 45.0°F7.2°C 88% 3.0 mph SW4.8 kmh SW 7.0 mph11.3 kmh 30.11 in1019.6 mb 0.00 in0.0 mm 0.00 in0.0 mm 0.00 in0.0 mm
05:30 AM 48.4°F9.1°C 45.0°F7.2°C 88% 2.0 mph SW3.2 kmh SW 6.0 mph9.7 kmh 30.11 in1019.6 mb 0.00 in0.0 mm 0.00 in0.0 mm 0.00 in0.0 mm
05:25 AM 48.4°F9.1°C 45.0°F7.2°C 88% 1.0 mph SW1.6 kmh SW 5.0 mph8.0 kmh 30.11 in1019.6 mb 0.00 in0.0 mm 0.00 in0.0 mm 0.00 in0.0 mm
05:20 AM 48.4°F9.1°C 45.0°F7.2°C 88% 2.0 mph SW3.2 kmh SW 4.0 mph6.4 kmh 30.12 in1020.0 mb 0.00 in0.0 mm 0.00 in0.0 mm 0.00 in0.0 mm
05:15 AM 48.3°F9.1°C 44.9°F7.2°C 88% 2.0 mph WSW3.2 kmh WSW 6.0 mph9.7 kmh 30.12 in1020.0 mb 0.00 in0.0 mm 0.00 in0.0 mm 0.00 in0.0 mm
05:10 AM 48.3°F9.1°C 44.9°F7.2°C 88% 2.0 mph WSW3.2 kmh WSW 6.0 mph9.7 kmh 30.12 in1020.0 mb 0.00 in0.0 mm 0.00 in0.0 mm 0.00 in0.0 mm
05:05 AM 48.3°F9.1°C 44.9°F7.2°C 88% 2.0 mph SW3.2 kmh SW 8.0 mph12.9 kmh 30.12 in1020.0 mb 0.00 in0.0 mm 0.00 in0.0 mm 0.00 in0.0 mm
05:00 AM 48.3°F9.1°C 44.9°F7.2°C 88% 2.0 mph WSW3.2 kmh WSW 4.0 mph6.4 kmh 30.12 in1020.0 mb 0.00 in0.0 mm 0.00 in0.0 mm 0.00 in0.0 mm
04:55 AM 48.3°F9.1°C 44.9°F7.2°C 88% 2.0 mph WSW3.2 kmh WSW 5.0 mph8.0 kmh 30.11 in1019.6 mb 0.00 in0.0 mm 0.00 in0.0 mm 0.00 in0.0 mm
04:50 AM 48.2°F9.0°C 44.8°F7.1°C 88% 2.0 mph SW3.2 kmh SW 5.0 mph8.0 kmh 30.11 in1019.6 mb 0.00 in0.0 mm 0.00 in0.0 mm 0.00 in0.0 mm
04:45 AM 48.3°F9.1°C 44.9°F7.2°C 88% 3.0 mph SW4.8 kmh SW 8.0 mph12.9 kmh 30.12 in1020.0 mb 0.00 in0.0 mm 0.00 in0.0 mm 0.00 in0.0 mm
04:40 AM 48.2°F9.0°C 44.8°F7.1°C 88% 4.0 mph WSW6.4 kmh WSW 10.0 mph16.1 kmh 30.12 in1020.0 mb 0.00 in0.0 mm 0.00 in0.0 mm 0.00 in0.0 mm
04:35 AM 48.2°F9.0°C 44.8°F7.1°C 88% 3.0 mph WSW4.8 kmh WSW 7.0 mph11.3 kmh 30.12 in1020.0 mb 0.00 in0.0 mm 0.00 in0.0 mm 0.00 in0.0 mm
04:30 AM 48.2°F9.0°C 44.8°F7.1°C 88% 3.0 mph SSW4.8 kmh SSW 7.0 mph11.3 kmh 30.12 in1020.0 mb 0.00 in0.0 mm 0.00 in0.0 mm 0.00 in0.0 mm
04:25 AM 48.1°F8.9°C 44.7°F7.1°C 88% 3.0 mph SW4.8 kmh SW 7.0 mph11.3 kmh 30.12 in1020.0 mb 0.00 in0.0 mm 0.00 in0.0 mm 0.00 in0.0 mm
04:20 AM 48.1°F8.9°C 44.7°F7.1°C 88% 3.0 mph SSW4.8 kmh SSW 8.0 mph12.9 kmh 30.12 in1020.0 mb 0.00 in0.0 mm 0.00 in0.0 mm 0.00 in0.0 mm
04:15 AM 48.1°F8.9°C 45.0°F7.2°C 89% 3.0 mph SW4.8 kmh SW 8.0 mph12.9 kmh 30.12 in1020.0 mb 0.00 in0.0 mm 0.00 in0.0 mm 0.00 in0.0 mm
04:10 AM 48.1°F8.9°C 45.0°F7.2°C 89% 2.0 mph S3.2 kmh S 7.0 mph11.3 kmh 30.12 in1020.0 mb 0.00 in0.0 mm 0.00 in0.0 mm 0.00 in0.0 mm
04:05 AM 48.1°F8.9°C 45.0°F7.2°C 89% 2.0 mph S3.2 kmh S 5.0 mph8.0 kmh 30.13 in1020.3 mb 0.00 in0.0 mm 0.00 in0.0 mm 0.00 in0.0 mm
04:00 AM 48.0°F8.9°C 44.9°F7.2°C 89% 3.0 mph SW4.8 kmh SW 8.0 mph12.9 kmh 30.13 in1020.3 mb 0.00 in0.0 mm 0.00 in0.0 mm 0.00 in0.0 mm
03:55 AM 48.0°F8.9°C 44.9°F7.2°C 89% 2.0 mph SSW3.2 kmh SSW 5.0 mph8.0 kmh 30.13 in1020.3 mb 0.00 in0.0 mm 0.00 in0.0 mm 0.00 in0.0 mm
03:50 AM 47.9°F8.8°C 44.8°F7.1°C 89% 2.0 mph SW3.2 kmh SW 4.0 mph6.4 kmh 30.13 in1020.3 mb 0.00 in0.0 mm 0.00 in0.0 mm 0.00 in0.0 mm
03:45 AM 47.9°F8.8°C 44.8°F7.1°C 89% 3.0 mph SW4.8 kmh SW 5.0 mph8.0 kmh 30.13 in1020.3 mb 0.00 in0.0 mm 0.00 in0.0 mm 0.00 in0.0 mm
03:40 AM 47.9°F8.8°C 44.8°F7.1°C 89% 3.0 mph SW4.8 kmh SW 7.0 mph11.3 kmh 30.13 in1020.3 mb 0.00 in0.0 mm 0.00 in0.0 mm 0.00 in0.0 mm
03:35 AM 47.9°F8.8°C 45.1°F7.3°C 90% 2.0 mph SSW3.2 kmh SSW 5.0 mph8.0 kmh 30.13 in1020.3 mb 0.00 in0.0 mm 0.00 in0.0 mm 0.00 in0.0 mm
03:30 AM 47.8°F8.8°C 45.0°F7.2°C 90% 2.0 mph SSW3.2 kmh SSW 8.0 mph12.9 kmh 30.13 in1020.3 mb 0.00 in0.0 mm 0.00 in0.0 mm 0.00 in0.0 mm
03:25 AM 47.8°F8.8°C 45.0°F7.2°C 90% 2.0 mph SW3.2 kmh SW 4.0 mph6.4 kmh 30.13 in1020.3 mb 0.00 in0.0 mm 0.00 in0.0 mm 0.00 in0.0 mm
03:20 AM 47.8°F8.8°C 45.0°F7.2°C 90% 2.0 mph SW3.2 kmh SW 6.0 mph9.7 kmh 30.14 in1020.7 mb 0.00 in0.0 mm 0.00 in0.0 mm 0.00 in0.0 mm
03:15 AM 47.8°F8.8°C 45.0°F7.2°C 90% 1.0 mph SW1.6 kmh SW 6.0 mph9.7 kmh 30.14 in1020.7 mb 0.00 in0.0 mm 0.00 in0.0 mm 0.00 in0.0 mm
03:10 AM 47.8°F8.8°C 45.0°F7.2°C 90% 2.0 mph SW3.2 kmh SW 4.0 mph6.4 kmh 30.14 in1020.7 mb 0.00 in0.0 mm 0.00 in0.0 mm 0.00 in0.0 mm
03:05 AM 47.8°F8.8°C 45.0°F7.2°C 90% 2.0 mph SW3.2 kmh SW 6.0 mph9.7 kmh 30.14 in1020.7 mb 0.00 in0.0 mm 0.00 in0.0 mm 0.00 in0.0 mm
03:00 AM 47.8°F8.8°C 45.0°F7.2°C 90% 2.0 mph SW3.2 kmh SW 4.0 mph6.4 kmh 30.14 in1020.7 mb 0.00 in0.0 mm 0.00 in0.0 mm 0.00 in0.0 mm
02:55 AM 47.7°F8.7°C 44.9°F7.2°C 90% 2.0 mph SW3.2 kmh SW 6.0 mph9.7 kmh 30.14 in1020.7 mb 0.00 in0.0 mm 0.00 in0.0 mm 0.00 in0.0 mm
02:50 AM 47.7°F8.7°C 44.9°F7.2°C 90% 3.0 mph SSW4.8 kmh SSW 7.0 mph11.3 kmh 30.14 in1020.7 mb 0.00 in0.0 mm 0.00 in0.0 mm 0.00 in0.0 mm
02:45 AM 47.7°F8.7°C 45.2°F7.3°C 91% 2.0 mph WSW3.2 kmh WSW 6.0 mph9.7 kmh 30.14 in1020.7 mb 0.00 in0.0 mm 0.00 in0.0 mm 0.00 in0.0 mm
02:40 AM 47.7°F8.7°C 45.2°F7.3°C 91% 2.0 mph SW3.2 kmh SW 6.0 mph9.7 kmh 30.14 in1020.7 mb 0.00 in0.0 mm 0.00 in0.0 mm 0.00 in0.0 mm
02:35 AM 47.6°F8.7°C 44.8°F7.1°C 90% 3.0 mph WSW4.8 kmh WSW 8.0 mph12.9 kmh 30.14 in1020.7 mb 0.00 in0.0 mm 0.00 in0.0 mm 0.00 in0.0 mm
02:30 AM 47.6°F8.7°C 44.8°F7.1°C 90% 2.0 mph SW3.2 kmh SW 7.0 mph11.3 kmh 30.14 in1020.7 mb 0.00 in0.0 mm 0.00 in0.0 mm 0.00 in0.0 mm
02:25 AM 47.6°F8.7°C 45.1°F7.3°C 91% 2.0 mph SW3.2 kmh SW 5.0 mph8.0 kmh 30.14 in1020.7 mb 0.00 in0.0 mm 0.00 in0.0 mm 0.00 in0.0 mm
02:20 AM 47.5°F8.6°C 45.0°F7.2°C 91% 2.0 mph S3.2 kmh S 9.0 mph14.5 kmh 30.14 in1020.7 mb 0.00 in0.0 mm 0.00 in0.0 mm 0.00 in0.0 mm
02:15 AM 47.5°F8.6°C 45.0°F7.2°C 91% 3.0 mph SW4.8 kmh SW 10.0 mph16.1 kmh 30.14 in1020.7 mb 0.00 in0.0 mm 0.00 in0.0 mm 0.00 in0.0 mm
02:10 AM 47.5°F8.6°C 45.0°F7.2°C 91% 3.0 mph WSW4.8 kmh WSW 8.0 mph12.9 kmh 30.14 in1020.7 mb 0.00 in0.0 mm 0.00 in0.0 mm 0.00 in0.0 mm
02:05 AM 47.5°F8.6°C 45.0°F7.2°C 91% 3.0 mph SW4.8 kmh SW 13.0 mph20.9 kmh 30.14 in1020.7 mb 0.00 in0.0 mm 0.00 in0.0 mm 0.00 in0.0 mm
02:00 AM 47.4°F8.6°C 44.9°F7.2°C 91% 3.0 mph SW4.8 kmh SW 7.0 mph11.3 kmh 30.14 in1020.7 mb 0.00 in0.0 mm 0.00 in0.0 mm 0.00 in0.0 mm
01:55 AM 47.4°F8.6°C 44.9°F7.2°C 91% 2.0 mph SW3.2 kmh SW 11.0 mph17.7 kmh 30.14 in1020.7 mb 0.00 in0.0 mm 0.00 in0.0 mm 0.00 in0.0 mm
01:50 AM 47.3°F8.5°C 44.8°F7.1°C 91% 3.0 mph SW4.8 kmh SW 9.0 mph14.5 kmh 30.15 in1021.0 mb 0.00 in0.0 mm 0.00 in0.0 mm 0.00 in0.0 mm
01:45 AM 47.3°F8.5°C 44.8°F7.1°C 91% 5.0 mph SW8.0 kmh SW 13.0 mph20.9 kmh 30.15 in1021.0 mb 0.00 in0.0 mm 0.00 in0.0 mm 0.00 in0.0 mm
01:40 AM 47.2°F8.4°C 44.7°F7.1°C 91% 3.0 mph SSW4.8 kmh SSW 8.0 mph12.9 kmh 30.15 in1021.0 mb 0.00 in0.0 mm 0.00 in0.0 mm 0.00 in0.0 mm
01:35 AM 47.1°F8.4°C 44.6°F7.0°C 91% 2.0 mph S3.2 kmh S 6.0 mph9.7 kmh 30.14 in1020.7 mb 0.00 in0.0 mm 0.00 in0.0 mm 0.00 in0.0 mm
01:30 AM 47.0°F8.3°C 44.5°F6.9°C 91% 3.0 mph SSW4.8 kmh SSW 10.0 mph16.1 kmh 30.14 in1020.7 mb 0.00 in0.0 mm 0.00 in0.0 mm 0.00 in0.0 mm
01:25 AM 47.0°F8.3°C 44.5°F6.9°C 91% 2.0 mph SSW3.2 kmh SSW 7.0 mph11.3 kmh 30.15 in1021.0 mb 0.00 in0.0 mm 0.00 in0.0 mm 0.00 in0.0 mm
01:20 AM 46.9°F8.3°C 44.4°F6.9°C 91% 3.0 mph SSW4.8 kmh SSW 8.0 mph12.9 kmh 30.15 in1021.0 mb 0.00 in0.0 mm 0.00 in0.0 mm 0.00 in0.0 mm
01:15 AM 46.8°F8.2°C 44.3°F6.8°C 91% 2.0 mph SW3.2 kmh SW 9.0 mph14.5 kmh 30.15 in1021.0 mb 0.00 in0.0 mm 0.00 in0.0 mm 0.00 in0.0 mm
01:10 AM 46.8°F8.2°C 44.3°F6.8°C 91% 3.0 mph S4.8 kmh S 9.0 mph14.5 kmh 30.15 in1021.0 mb 0.00 in0.0 mm 0.00 in0.0 mm 0.00 in0.0 mm
01:05 AM 46.7°F8.2°C 44.2°F6.8°C 91% 3.0 mph SSW4.8 kmh SSW 8.0 mph12.9 kmh 30.15 in1021.0 mb 0.00 in0.0 mm 0.00 in0.0 mm 0.00 in0.0 mm
01:00 AM 46.6°F8.1°C 44.1°F6.7°C 91% 2.0 mph SW3.2 kmh SW 7.0 mph11.3 kmh 30.16 in1021.3 mb 0.00 in0.0 mm 0.00 in0.0 mm 0.00 in0.0 mm
12:55 AM 46.5°F8.1°C 44.0°F6.7°C 91% 2.0 mph SW3.2 kmh SW 7.0 mph11.3 kmh 30.16 in1021.3 mb 0.00 in0.0 mm 0.00 in0.0 mm 0.00 in0.0 mm
12:50 AM 46.4°F8.0°C 43.9°F6.6°C 91% 2.0 mph SSW3.2 kmh SSW 4.0 mph6.4 kmh 30.16 in1021.3 mb 0.00 in0.0 mm 0.00 in0.0 mm 0.00 in0.0 mm
12:45 AM 46.3°F7.9°C 43.8°F6.6°C 91% 3.0 mph SSW4.8 kmh SSW 6.0 mph9.7 kmh 30.16 in1021.3 mb 0.00 in0.0 mm 0.00 in0.0 mm 0.00 in0.0 mm
12:40 AM 46.2°F7.9°C 43.7°F6.5°C 91% 3.0 mph SSW4.8 kmh SSW 8.0 mph12.9 kmh 30.16 in1021.3 mb 0.00 in0.0 mm 0.00 in0.0 mm 0.00 in0.0 mm
12:35 AM 46.1°F7.8°C 43.6°F6.4°C 91% 3.0 mph S4.8 kmh S 7.0 mph11.3 kmh 30.16 in1021.3 mb 0.00 in0.0 mm 0.00 in0.0 mm 0.00 in0.0 mm
12:30 AM 46.0°F7.8°C 43.5°F6.4°C 91% 4.0 mph WSW6.4 kmh WSW 11.0 mph17.7 kmh 30.16 in1021.3 mb 0.00 in0.0 mm 0.00 in0.0 mm 0.00 in0.0 mm
12:25 AM 45.9°F7.7°C 43.4°F6.3°C 91% 3.0 mph S4.8 kmh S 6.0 mph9.7 kmh 30.16 in1021.3 mb 0.00 in0.0 mm 0.00 in0.0 mm 0.00 in0.0 mm
12:20 AM 45.9°F7.7°C 43.4°F6.3°C 91% 3.0 mph SSE4.8 kmh SSE 9.0 mph14.5 kmh 30.16 in1021.3 mb 0.00 in0.0 mm 0.00 in0.0 mm 0.00 in0.0 mm
12:15 AM 45.8°F7.7°C 43.3°F6.3°C 91% 4.0 mph SSE6.4 kmh SSE 10.0 mph16.1 kmh 30.17 in1021.7 mb 0.00 in0.0 mm 0.00 in0.0 mm 0.00 in0.0 mm
12:10 AM 45.7°F7.6°C 43.2°F6.2°C 91% 2.0 mph SSW3.2 kmh SSW 6.0 mph9.7 kmh 30.17 in1021.7 mb 0.00 in0.0 mm 0.00 in0.0 mm 0.00 in0.0 mm
12:05 AM 45.6°F7.6°C 42.8°F6.0°C 90% 2.0 mph SSW3.2 kmh SSW 7.0 mph11.3 kmh 30.18 in1022.0 mb 0.00 in0.0 mm 0.00 in0.0 mm 0.00 in0.0 mm
12:00 AM 45.6°F7.6°C 42.8°F6.0°C 90% 2.0 mph SSW3.2 kmh SSW 6.0 mph9.7 kmh 30.18 in1022.0 mb 0.00 in0.0 mm 0.00 in0.0 mm 0.00 in0.0 mm